Nasudden, Sweden

2:56 AM CEST on July 31, 2016 (GMT +0200)
Valarvägen | | Change Station

Elev 9 ft 57.03 °N, 18.26 °E | Updated 27 seconds ago

Scattered Clouds
Scattered Clouds
66.6 °F
Feels Like 66.6 °F
N
5.0
Wind Variable Wind from WNW
Gusts 9.9 mph

Today
High -- | Low -- °F
--% Chance of Precip.
Yesterday
High -- | Low -- °F
Precip. -- in
Pressure 29.71 in
Visibility 6.2 miles
Clouds Scattered Clouds 8400 ft
Dew Point 60 °F
Humidity 79%
Rainfall 0.00 in
Snow Depth Not available.
4:44 AM 9:01 PM
Waning Crescent, 10% visible
METAR ESSV 310050Z AUTO 32013KT 9999 SCT084/// 19/12 Q1006
Pressure 29.71 in
Visibility 6.2 miles
Clouds Scattered Clouds 8400 ft
Dew Point 60 °F
Humidity 79%
Rainfall 0.00 in
Snow Depth Not available.
4:44 AM 9:01 PM
Waning Crescent, 10% visible
METAR ESSV 310050Z AUTO 32013KT 9999 SCT084/// 19/12 Q1006

10-Day Weather Forecast

×

Almanac

Astronomy

Jul. 31, 2016 Rise Set
Actual Time
Civil Twilight
Nautical Twilight
Astronomical Twilight
Moon
Length of Visible Light
Length of Day
Tomorrow will be .
, % of the Moon is Illuminated

Today's Extremes

Country Highs Country Lows

Community

WunderPhotos

Upload Photos

1,928,688 photos uploaded!

WunderBlog® & News

Nearby

Air Quality

  Air Quality AQ Index Pollutant
Not available.

Snow Depth

Station Depth Elevation

Earthquake Activity

City Distance Mag. Time & Date
Minimum magnitude displayed is 2.5.

Coastal Water Temperatures

Place Temperature

Stations

Nearby Weather Stations

Station Location Temp. Windchill Dew Point Humidity Wind Precip. Elev Updated Type